sensor_id;sensor_type;location;lat;lon;timestamp;temperature;humidity
47520;DHT22;33252;48.122;11.538;2023-12-22T00:02:07;5.70;99.90
47520;DHT22;33252;48.122;11.538;2023-12-22T00:04:32;5.80;99.90
47520;DHT22;33252;48.122;11.538;2023-12-22T00:06:58;5.70;99.90
47520;DHT22;33252;48.122;11.538;2023-12-22T00:09:23;5.80;99.90
47520;DHT22;33252;48.122;11.538;2023-12-22T00:11:49;5.90;99.90
47520;DHT22;33252;48.122;11.538;2023-12-22T00:14:14;6.00;99.90
47520;DHT22;33252;48.122;11.538;2023-12-22T00:16:40;6.00;99.90
47520;DHT22;33252;48.122;11.538;2023-12-22T00:19:06;5.80;99.90
47520;DHT22;33252;48.122;11.538;2023-12-22T00:21:31;4.60;99.90
47520;DHT22;33252;48.122;11.538;2023-12-22T00:23:57;3.50;99.90
47520;DHT22;33252;48.122;11.538;2023-12-22T00:26:23;3.20;99.90
47520;DHT22;33252;48.122;11.538;2023-12-22T00:28:48;2.90;99.90
47520;DHT22;33252;48.122;11.538;2023-12-22T00:31:14;2.90;99.90
47520;DHT22;33252;48.122;11.538;2023-12-22T00:33:39;2.80;99.90
47520;DHT22;33252;48.122;11.538;2023-12-22T00:36:05;2.60;99.90
47520;DHT22;33252;48.122;11.538;2023-12-22T00:38:31;2.50;99.90
47520;DHT22;33252;48.122;11.538;2023-12-22T00:40:56;2.40;99.90
47520;DHT22;33252;48.122;11.538;2023-12-22T00:43:22;2.40;99.90
47520;DHT22;33252;48.122;11.538;2023-12-22T00:45:47;2.40;99.90
47520;DHT22;33252;48.122;11.538;2023-12-22T00:48:13;2.40;99.90
47520;DHT22;33252;48.122;11.538;2023-12-22T00:50:39;2.60;99.90
47520;DHT22;33252;48.122;11.538;2023-12-22T00:53:04;2.60;99.90
47520;DHT22;33252;48.122;11.538;2023-12-22T00:55:30;2.60;99.90
47520;DHT22;33252;48.122;11.538;2023-12-22T00:57:55;2.60;99.90
47520;DHT22;33252;48.122;11.538;2023-12-22T01:00:21;2.70;99.90
47520;DHT22;33252;48.122;11.538;2023-12-22T01:02:46;2.40;99.90
47520;DHT22;33252;48.122;11.538;2023-12-22T01:05:12;2.30;99.90
47520;DHT22;33252;48.122;11.538;2023-12-22T01:07:37;2.40;99.90
47520;DHT22;33252;48.122;11.538;2023-12-22T01:10:03;2.50;99.90
47520;DHT22;33252;48.122;11.538;2023-12-22T01:12:29;2.50;99.90
47520;DHT22;33252;48.122;11.538;2023-12-22T01:14:56;2.60;99.90
47520;DHT22;33252;48.122;11.538;2023-12-22T01:17:22;2.60;99.90
47520;DHT22;33252;48.122;11.538;2023-12-22T01:19:48;2.60;99.90
47520;DHT22;33252;48.122;11.538;2023-12-22T01:22:13;2.70;99.90
47520;DHT22;33252;48.122;11.538;2023-12-22T01:24:39;2.80;99.90
47520;DHT22;33252;48.122;11.538;2023-12-22T01:27:08;2.60;99.90
47520;DHT22;33252;48.122;11.538;2023-12-22T01:29:34;2.60;99.90
47520;DHT22;33252;48.122;11.538;2023-12-22T01:31:59;2.60;99.90
47520;DHT22;33252;48.122;11.538;2023-12-22T01:34:25;2.60;99.90
47520;DHT22;33252;48.122;11.538;2023-12-22T01:36:50;2.60;99.90
47520;DHT22;33252;48.122;11.538;2023-12-22T01:39:16;2.50;99.90
47520;DHT22;33252;48.122;11.538;2023-12-22T01:41:42;2.50;99.90
47520;DHT22;33252;48.122;11.538;2023-12-22T01:44:07;2.40;99.90
47520;DHT22;33252;48.122;11.538;2023-12-22T01:46:33;2.40;99.90
47520;DHT22;33252;48.122;11.538;2023-12-22T01:49:00;2.30;99.90
47520;DHT22;33252;48.122;11.538;2023-12-22T01:51:30;2.10;99.90
47520;DHT22;33252;48.122;11.538;2023-12-22T01:53:56;2.20;99.90
47520;DHT22;33252;48.122;11.538;2023-12-22T01:56:22;2.10;99.90
47520;DHT22;33252;48.122;11.538;2023-12-22T01:58:47;2.10;99.90
47520;DHT22;33252;48.122;11.538;2023-12-22T02:01:13;2.00;99.90
47520;DHT22;33252;48.122;11.538;2023-12-22T02:03:39;2.00;99.90
47520;DHT22;33252;48.122;11.538;2023-12-22T02:06:05;1.90;99.90
47520;DHT22;33252;48.122;11.538;2023-12-22T02:08:35;1.90;99.90
47520;DHT22;33252;48.122;11.538;2023-12-22T02:11:01;1.80;99.90
47520;DHT22;33252;48.122;11.538;2023-12-22T02:13:28;2.10;99.90
47520;DHT22;33252;48.122;11.538;2023-12-22T02:16:06;1.80;99.90
47520;DHT22;33252;48.122;11.538;2023-12-22T02:18:39;1.80;99.90
47520;DHT22;33252;48.122;11.538;2023-12-22T02:21:08;1.80;99.90
47520;DHT22;33252;48.122;11.538;2023-12-22T02:23:34;1.70;99.90
47520;DHT22;33252;48.122;11.538;2023-12-22T02:26:06;1.60;99.90
47520;DHT22;33252;48.122;11.538;2023-12-22T02:28:35;1.50;99.90
47520;DHT22;33252;48.122;11.538;2023-12-22T02:31:14;1.40;99.90
47520;DHT22;33252;48.122;11.538;2023-12-22T02:33:41;1.60;99.90
47520;DHT22;33252;48.122;11.538;2023-12-22T02:36:08;1.50;99.90
47520;DHT22;33252;48.122;11.538;2023-12-22T02:38:35;1.40;99.90
47520;DHT22;33252;48.122;11.538;2023-12-22T02:41:02;1.60;99.90
47520;DHT22;33252;48.122;11.538;2023-12-22T02:43:28;1.60;99.90
47520;DHT22;33252;48.122;11.538;2023-12-22T02:45:54;1.70;99.90
47520;DHT22;33252;48.122;11.538;2023-12-22T02:48:19;1.80;99.90
47520;DHT22;33252;48.122;11.538;2023-12-22T02:50:45;1.90;99.90
47520;DHT22;33252;48.122;11.538;2023-12-22T02:53:10;1.90;99.90
47520;DHT22;33252;48.122;11.538;2023-12-22T02:55:36;1.80;99.90
47520;DHT22;33252;48.122;11.538;2023-12-22T02:58:01;1.80;99.90
47520;DHT22;33252;48.122;11.538;2023-12-22T03:00:27;1.90;99.90
47520;DHT22;33252;48.122;11.538;2023-12-22T03:02:52;1.90;99.90
47520;DHT22;33252;48.122;11.538;2023-12-22T03:05:18;2.00;99.90
47520;DHT22;33252;48.122;11.538;2023-12-22T03:07:43;2.00;99.90
47520;DHT22;33252;48.122;11.538;2023-12-22T03:10:09;2.10;99.90
47520;DHT22;33252;48.122;11.538;2023-12-22T03:12:34;2.10;99.90
47520;DHT22;33252;48.122;11.538;2023-12-22T03:15:00;1.90;99.90
47520;DHT22;33252;48.122;11.538;2023-12-22T03:17:25;1.90;99.90
47520;DHT22;33252;48.122;11.538;2023-12-22T03:19:51;2.00;99.90
47520;DHT22;33252;48.122;11.538;2023-12-22T03:22:17;2.10;99.90
47520;DHT22;33252;48.122;11.538;2023-12-22T03:24:43;2.20;99.90
47520;DHT22;33252;48.122;11.538;2023-12-22T03:27:08;2.30;99.90
47520;DHT22;33252;48.122;11.538;2023-12-22T03:29:34;2.40;99.90
47520;DHT22;33252;48.122;11.538;2023-12-22T03:31:59;2.30;99.90
47520;DHT22;33252;48.122;11.538;2023-12-22T03:34:25;2.40;99.90
47520;DHT22;33252;48.122;11.538;2023-12-22T03:36:50;2.50;99.90
47520;DHT22;33252;48.122;11.538;2023-12-22T03:39:16;2.60;99.90
47520;DHT22;33252;48.122;11.538;2023-12-22T03:41:41;2.60;99.90
47520;DHT22;33252;48.122;11.538;2023-12-22T03:44:07;2.40;99.90
47520;DHT22;33252;48.122;11.538;2023-12-22T03:46:33;2.50;99.90
47520;DHT22;33252;48.122;11.538;2023-12-22T03:48:58;2.60;99.90
47520;DHT22;33252;48.122;11.538;2023-12-22T03:51:24;2.60;99.90
47520;DHT22;33252;48.122;11.538;2023-12-22T03:53:49;2.60;99.90
47520;DHT22;33252;48.122;11.538;2023-12-22T03:56:15;2.60;99.90
47520;DHT22;33252;48.122;11.538;2023-12-22T03:58:40;2.60;99.90
47520;DHT22;33252;48.122;11.538;2023-12-22T04:01:06;2.70;99.90
47520;DHT22;33252;48.122;11.538;2023-12-22T04:03:34;3.00;99.90
47520;DHT22;33252;48.122;11.538;2023-12-22T04:06:03;3.20;99.90
47520;DHT22;33252;48.122;11.538;2023-12-22T04:08:29;3.50;99.90
47520;DHT22;33252;48.122;11.538;2023-12-22T04:10:54;3.60;99.90
47520;DHT22;33252;48.122;11.538;2023-12-22T04:13:20;3.90;99.90
47520;DHT22;33252;48.122;11.538;2023-12-22T04:15:45;4.10;99.90
47520;DHT22;33252;48.122;11.538;2023-12-22T04:18:11;4.10;99.90
47520;DHT22;33252;48.122;11.538;2023-12-22T04:20:36;4.20;99.90
47520;DHT22;33252;48.122;11.538;2023-12-22T04:23:02;4.30;99.90
47520;DHT22;33252;48.122;11.538;2023-12-22T04:25:27;4.40;99.90
47520;DHT22;33252;48.122;11.538;2023-12-22T04:27:53;4.30;99.90
47520;DHT22;33252;48.122;11.538;2023-12-22T04:30:18;4.30;99.90
47520;DHT22;33252;48.122;11.538;2023-12-22T04:32:44;4.40;99.90
47520;DHT22;33252;48.122;11.538;2023-12-22T04:35:09;4.40;99.90
47520;DHT22;33252;48.122;11.538;2023-12-22T04:37:35;4.40;99.90
47520;DHT22;33252;48.122;11.538;2023-12-22T04:40:00;4.40;99.90
47520;DHT22;33252;48.122;11.538;2023-12-22T04:42:26;4.50;99.90
47520;DHT22;33252;48.122;11.538;2023-12-22T04:44:52;4.50;99.90
47520;DHT22;33252;48.122;11.538;2023-12-22T04:47:18;4.50;99.90
47520;DHT22;33252;48.122;11.538;2023-12-22T04:49:44;4.50;99.90
47520;DHT22;33252;48.122;11.538;2023-12-22T04:52:11;4.50;99.90
47520;DHT22;33252;48.122;11.538;2023-12-22T04:54:36;4.60;99.90
47520;DHT22;33252;48.122;11.538;2023-12-22T04:57:02;4.60;99.90
47520;DHT22;33252;48.122;11.538;2023-12-22T04:59:28;4.60;99.90
47520;DHT22;33252;48.122;11.538;2023-12-22T05:01:53;4.70;99.90
47520;DHT22;33252;48.122;11.538;2023-12-22T05:04:19;4.70;99.90
47520;DHT22;33252;48.122;11.538;2023-12-22T05:06:44;4.70;99.90
47520;DHT22;33252;48.122;11.538;2023-12-22T05:09:11;4.80;99.90
47520;DHT22;33252;48.122;11.538;2023-12-22T05:11:36;4.90;99.90
47520;DHT22;33252;48.122;11.538;2023-12-22T05:14:02;4.90;99.90
47520;DHT22;33252;48.122;11.538;2023-12-22T05:16:27;4.90;99.90
47520;DHT22;33252;48.122;11.538;2023-12-22T05:18:56;4.90;99.90
47520;DHT22;33252;48.122;11.538;2023-12-22T05:21:23;5.00;99.90
47520;DHT22;33252;48.122;11.538;2023-12-22T05:23:48;5.00;99.90
47520;DHT22;33252;48.122;11.538;2023-12-22T05:26:20;5.00;99.90
47520;DHT22;33252;48.122;11.538;2023-12-22T05:28:47;5.10;99.90
47520;DHT22;33252;48.122;11.538;2023-12-22T05:31:15;5.20;99.90
47520;DHT22;33252;48.122;11.538;2023-12-22T05:33:40;5.10;99.90
47520;DHT22;33252;48.122;11.538;2023-12-22T05:36:06;5.20;99.90
47520;DHT22;33252;48.122;11.538;2023-12-22T05:38:32;5.10;99.90
47520;DHT22;33252;48.122;11.538;2023-12-22T05:40:57;5.20;99.90
47520;DHT22;33252;48.122;11.538;2023-12-22T05:43:23;5.20;99.90
47520;DHT22;33252;48.122;11.538;2023-12-22T05:45:48;5.20;99.90
47520;DHT22;33252;48.122;11.538;2023-12-22T05:48:14;5.20;99.90
47520;DHT22;33252;48.122;11.538;2023-12-22T05:50:39;5.00;99.90
47520;DHT22;33252;48.122;11.538;2023-12-22T05:53:05;4.90;99.90
47520;DHT22;33252;48.122;11.538;2023-12-22T05:55:30;4.80;99.90
47520;DHT22;33252;48.122;11.538;2023-12-22T05:57:56;4.70;99.90
47520;DHT22;33252;48.122;11.538;2023-12-22T06:00:22;4.60;99.90
47520;DHT22;33252;48.122;11.538;2023-12-22T06:02:47;4.50;99.90
47520;DHT22;33252;48.122;11.538;2023-12-22T06:05:13;4.40;99.90
47520;DHT22;33252;48.122;11.538;2023-12-22T06:07:39;4.40;99.90
47520;DHT22;33252;48.122;11.538;2023-12-22T06:10:05;4.40;99.90
47520;DHT22;33252;48.122;11.538;2023-12-22T06:12:31;4.30;99.90
47520;DHT22;33252;48.122;11.538;2023-12-22T06:14:56;4.40;99.90
47520;DHT22;33252;48.122;11.538;2023-12-22T06:17:22;4.40;99.90
47520;DHT22;33252;48.122;11.538;2023-12-22T06:19:47;4.40;99.90
47520;DHT22;33252;48.122;11.538;2023-12-22T06:22:13;4.40;99.90
47520;DHT22;33252;48.122;11.538;2023-12-22T06:24:38;4.30;99.90
47520;DHT22;33252;48.122;11.538;2023-12-22T06:27:04;4.20;99.90
47520;DHT22;33252;48.122;11.538;2023-12-22T06:29:32;4.30;99.90
47520;DHT22;33252;48.122;11.538;2023-12-22T06:31:57;4.30;99.90
47520;DHT22;33252;48.122;11.538;2023-12-22T06:34:23;4.30;99.90
47520;DHT22;33252;48.122;11.538;2023-12-22T06:36:50;4.30;99.90
47520;DHT22;33252;48.122;11.538;2023-12-22T06:39:15;4.30;99.90
47520;DHT22;33252;48.122;11.538;2023-12-22T06:41:41;4.40;99.90
47520;DHT22;33252;48.122;11.538;2023-12-22T06:44:07;4.50;99.90
47520;DHT22;33252;48.122;11.538;2023-12-22T06:46:32;4.50;99.90
47520;DHT22;33252;48.122;11.538;2023-12-22T06:48:59;4.60;99.90
47520;DHT22;33252;48.122;11.538;2023-12-22T06:51:26;4.80;99.90
47520;DHT22;33252;48.122;11.538;2023-12-22T06:53:53;4.80;99.90
47520;DHT22;33252;48.122;11.538;2023-12-22T06:56:22;4.90;99.90
47520;DHT22;33252;48.122;11.538;2023-12-22T06:58:48;4.80;99.90
47520;DHT22;33252;48.122;11.538;2023-12-22T07:01:31;4.90;99.90
47520;DHT22;33252;48.122;11.538;2023-12-22T07:03:57;5.00;99.90
47520;DHT22;33252;48.122;11.538;2023-12-22T07:06:25;5.00;99.90
47520;DHT22;33252;48.122;11.538;2023-12-22T07:11:45;5.00;99.90
47520;DHT22;33252;48.122;11.538;2023-12-22T07:14:11;5.10;99.90
47520;DHT22;33252;48.122;11.538;2023-12-22T07:16:37;5.10;99.90
47520;DHT22;33252;48.122;11.538;2023-12-22T07:19:04;5.10;99.90
47520;DHT22;33252;48.122;11.538;2023-12-22T07:21:29;5.10;99.90
47520;DHT22;33252;48.122;11.538;2023-12-22T07:23:55;5.10;99.90
47520;DHT22;33252;48.122;11.538;2023-12-22T07:26:20;4.90;99.90
47520;DHT22;33252;48.122;11.538;2023-12-22T07:28:47;4.80;99.90
47520;DHT22;33252;48.122;11.538;2023-12-22T07:31:13;4.80;99.90
47520;DHT22;33252;48.122;11.538;2023-12-22T07:33:40;4.70;99.90
47520;DHT22;33252;48.122;11.538;2023-12-22T07:36:06;4.60;99.90
47520;DHT22;33252;48.122;11.538;2023-12-22T07:38:32;4.60;99.90
47520;DHT22;33252;48.122;11.538;2023-12-22T07:40:57;4.60;99.90
47520;DHT22;33252;48.122;11.538;2023-12-22T07:43:24;4.60;99.90
47520;DHT22;33252;48.122;11.538;2023-12-22T07:45:49;4.60;99.90
47520;DHT22;33252;48.122;11.538;2023-12-22T07:48:19;4.70;99.90
47520;DHT22;33252;48.122;11.538;2023-12-22T07:50:45;4.80;99.90
47520;DHT22;33252;48.122;11.538;2023-12-22T07:53:11;4.80;99.90
47520;DHT22;33252;48.122;11.538;2023-12-22T07:55:36;4.90;99.90
47520;DHT22;33252;48.122;11.538;2023-12-22T07:58:06;5.00;99.90
47520;DHT22;33252;48.122;11.538;2023-12-22T08:00:32;5.00;99.90
47520;DHT22;33252;48.122;11.538;2023-12-22T08:02:58;5.10;99.90
47520;DHT22;33252;48.122;11.538;2023-12-22T08:05:23;5.30;99.90
47520;DHT22;33252;48.122;11.538;2023-12-22T08:07:49;5.40;99.90
47520;DHT22;33252;48.122;11.538;2023-12-22T08:10:15;5.50;99.90
47520;DHT22;33252;48.122;11.538;2023-12-22T08:12:41;5.40;99.90
47520;DHT22;33252;48.122;11.538;2023-12-22T08:15:07;5.40;99.90
47520;DHT22;33252;48.122;11.538;2023-12-22T08:17:36;5.40;99.90
47520;DHT22;33252;48.122;11.538;2023-12-22T08:20:02;5.00;99.90
47520;DHT22;33252;48.122;11.538;2023-12-22T08:22:28;4.60;99.90
47520;DHT22;33252;48.122;11.538;2023-12-22T08:24:53;4.50;99.90
47520;DHT22;33252;48.122;11.538;2023-12-22T08:27:19;4.30;99.90
47520;DHT22;33252;48.122;11.538;2023-12-22T08:29:44;4.20;99.90
47520;DHT22;33252;48.122;11.538;2023-12-22T08:32:10;4.20;99.90
47520;DHT22;33252;48.122;11.538;2023-12-22T08:34:36;4.20;99.90
47520;DHT22;33252;48.122;11.538;2023-12-22T08:37:01;4.30;99.90
47520;DHT22;33252;48.122;11.538;2023-12-22T08:39:27;4.40;99.90
47520;DHT22;33252;48.122;11.538;2023-12-22T08:41:52;4.40;99.90
47520;DHT22;33252;48.122;11.538;2023-12-22T08:44:18;4.50;99.90
47520;DHT22;33252;48.122;11.538;2023-12-22T08:46:44;4.60;99.90
47520;DHT22;33252;48.122;11.538;2023-12-22T08:49:10;4.70;99.90
47520;DHT22;33252;48.122;11.538;2023-12-22T08:51:35;4.80;99.90
47520;DHT22;33252;48.122;11.538;2023-12-22T08:54:01;4.80;99.90
47520;DHT22;33252;48.122;11.538;2023-12-22T08:56:26;4.70;99.90
47520;DHT22;33252;48.122;11.538;2023-12-22T08:58:53;4.70;99.90
47520;DHT22;33252;48.122;11.538;2023-12-22T09:01:21;4.70;99.90
47520;DHT22;33252;48.122;11.538;2023-12-22T09:03:47;4.80;99.90
47520;DHT22;33252;48.122;11.538;2023-12-22T09:06:17;4.90;99.90
47520;DHT22;33252;48.122;11.538;2023-12-22T09:08:43;5.00;99.90
47520;DHT22;33252;48.122;11.538;2023-12-22T09:11:11;5.00;99.90
47520;DHT22;33252;48.122;11.538;2023-12-22T09:13:37;5.00;99.90
47520;DHT22;33252;48.122;11.538;2023-12-22T09:16:03;5.00;99.90
47520;DHT22;33252;48.122;11.538;2023-12-22T09:18:28;5.00;99.90
47520;DHT22;33252;48.122;11.538;2023-12-22T09:20:54;5.10;99.90
47520;DHT22;33252;48.122;11.538;2023-12-22T09:23:19;5.10;99.90
47520;DHT22;33252;48.122;11.538;2023-12-22T09:25:46;5.20;99.90
47520;DHT22;33252;48.122;11.538;2023-12-22T09:28:12;5.30;99.90
47520;DHT22;33252;48.122;11.538;2023-12-22T09:30:37;5.40;99.90
47520;DHT22;33252;48.122;11.538;2023-12-22T09:33:03;5.40;99.90
47520;DHT22;33252;48.122;11.538;2023-12-22T09:35:29;5.40;99.90
47520;DHT22;33252;48.122;11.538;2023-12-22T09:37:55;5.50;99.90
47520;DHT22;33252;48.122;11.538;2023-12-22T09:40:20;5.40;99.90
47520;DHT22;33252;48.122;11.538;2023-12-22T09:42:47;5.50;99.90
47520;DHT22;33252;48.122;11.538;2023-12-22T09:45:16;5.50;99.90
47520;DHT22;33252;48.122;11.538;2023-12-22T09:47:44;5.40;99.90
47520;DHT22;33252;48.122;11.538;2023-12-22T09:50:11;5.50;99.90
47520;DHT22;33252;48.122;11.538;2023-12-22T09:52:38;5.40;99.90
47520;DHT22;33252;48.122;11.538;2023-12-22T09:55:07;5.30;99.90
47520;DHT22;33252;48.122;11.538;2023-12-22T09:57:33;5.30;99.90
47520;DHT22;33252;48.122;11.538;2023-12-22T10:00:00;5.30;99.90
47520;DHT22;33252;48.122;11.538;2023-12-22T10:02:32;5.20;99.90
47520;DHT22;33252;48.122;11.538;2023-12-22T10:04:58;5.10;99.90
47520;DHT22;33252;48.122;11.538;2023-12-22T10:07:24;4.90;99.90
47520;DHT22;33252;48.122;11.538;2023-12-22T10:09:52;4.80;99.90
47520;DHT22;33252;48.122;11.538;2023-12-22T10:12:19;4.70;99.90
47520;DHT22;33252;48.122;11.538;2023-12-22T10:14:47;4.50;99.90
47520;DHT22;33252;48.122;11.538;2023-12-22T10:17:14;4.30;99.90
47520;DHT22;33252;48.122;11.538;2023-12-22T10:19:40;4.20;99.90
47520;DHT22;33252;48.122;11.538;2023-12-22T10:22:06;4.10;99.90
47520;DHT22;33252;48.122;11.538;2023-12-22T10:24:45;4.00;99.90
47520;DHT22;33252;48.122;11.538;2023-12-22T10:27:15;3.90;99.90
47520;DHT22;33252;48.122;11.538;2023-12-22T10:29:42;3.90;99.90
47520;DHT22;33252;48.122;11.538;2023-12-22T10:32:08;3.80;99.90
47520;DHT22;33252;48.122;11.538;2023-12-22T10:34:36;3.80;99.90
47520;DHT22;33252;48.122;11.538;2023-12-22T10:37:02;3.90;99.90
47520;DHT22;33252;48.122;11.538;2023-12-22T10:39:29;3.80;99.90
47520;DHT22;33252;48.122;11.538;2023-12-22T10:41:55;3.90;99.90
47520;DHT22;33252;48.122;11.538;2023-12-22T10:44:24;3.80;99.90
47520;DHT22;33252;48.122;11.538;2023-12-22T10:46:49;3.80;99.90
47520;DHT22;33252;48.122;11.538;2023-12-22T10:49:15;3.80;99.90
47520;DHT22;33252;48.122;11.538;2023-12-22T10:51:41;3.80;99.90
47520;DHT22;33252;48.122;11.538;2023-12-22T10:54:08;3.80;99.90
47520;DHT22;33252;48.122;11.538;2023-12-22T10:56:34;4.00;99.90
47520;DHT22;33252;48.122;11.538;2023-12-22T10:58:59;4.10;99.90
47520;DHT22;33252;48.122;11.538;2023-12-22T11:01:28;4.40;99.90
47520;DHT22;33252;48.122;11.538;2023-12-22T11:04:02;4.60;99.90
47520;DHT22;33252;48.122;11.538;2023-12-22T11:06:29;4.80;99.90
47520;DHT22;33252;48.122;11.538;2023-12-22T11:08:57;4.90;99.90
47520;DHT22;33252;48.122;11.538;2023-12-22T11:11:49;4.90;99.90
47520;DHT22;33252;48.122;11.538;2023-12-22T11:14:16;4.90;99.90
47520;DHT22;33252;48.122;11.538;2023-12-22T11:16:42;4.90;99.90
47520;DHT22;33252;48.122;11.538;2023-12-22T11:19:14;4.90;99.90
47520;DHT22;33252;48.122;11.538;2023-12-22T11:21:40;4.80;99.90
47520;DHT22;33252;48.122;11.538;2023-12-22T11:24:07;4.80;99.90
47520;DHT22;33252;48.122;11.538;2023-12-22T11:26:32;4.80;99.90
47520;DHT22;33252;48.122;11.538;2023-12-22T11:28:59;4.90;99.90
47520;DHT22;33252;48.122;11.538;2023-12-22T11:31:26;5.00;99.90
47520;DHT22;33252;48.122;11.538;2023-12-22T11:33:54;5.00;99.90
47520;DHT22;33252;48.122;11.538;2023-12-22T11:36:22;5.00;99.90
47520;DHT22;33252;48.122;11.538;2023-12-22T11:38:48;5.00;99.90
47520;DHT22;33252;48.122;11.538;2023-12-22T11:41:27;4.90;99.90
47520;DHT22;33252;48.122;11.538;2023-12-22T11:43:56;4.90;99.90
47520;DHT22;33252;48.122;11.538;2023-12-22T11:46:22;4.90;99.90
47520;DHT22;33252;48.122;11.538;2023-12-22T11:48:50;4.90;99.90
47520;DHT22;33252;48.122;11.538;2023-12-22T11:51:16;4.90;99.90
47520;DHT22;33252;48.122;11.538;2023-12-22T11:53:42;4.80;99.90
47520;DHT22;33252;48.122;11.538;2023-12-22T11:56:09;4.80;99.90
47520;DHT22;33252;48.122;11.538;2023-12-22T11:58:35;4.80;99.90
47520;DHT22;33252;48.122;11.538;2023-12-22T12:01:02;4.90;99.90
47520;DHT22;33252;48.122;11.538;2023-12-22T12:03:31;4.90;99.90
47520;DHT22;33252;48.122;11.538;2023-12-22T12:06:17;4.90;99.90
47520;DHT22;33252;48.122;11.538;2023-12-22T12:08:47;4.90;99.90
47520;DHT22;33252;48.122;11.538;2023-12-22T12:11:14;5.00;99.90
47520;DHT22;33252;48.122;11.538;2023-12-22T12:13:43;5.00;99.90
47520;DHT22;33252;48.122;11.538;2023-12-22T12:16:14;5.00;99.90
47520;DHT22;33252;48.122;11.538;2023-12-22T12:18:40;5.10;99.90
47520;DHT22;33252;48.122;11.538;2023-12-22T12:21:07;5.00;99.90
47520;DHT22;33252;48.122;11.538;2023-12-22T12:23:33;5.10;99.90
47520;DHT22;33252;48.122;11.538;2023-12-22T12:25:59;5.10;99.90
47520;DHT22;33252;48.122;11.538;2023-12-22T12:28:26;5.10;99.90
47520;DHT22;33252;48.122;11.538;2023-12-22T12:31:12;5.10;99.90
47520;DHT22;33252;48.122;11.538;2023-12-22T12:33:38;5.10;99.90
47520;DHT22;33252;48.122;11.538;2023-12-22T12:36:05;5.10;99.90
47520;DHT22;33252;48.122;11.538;2023-12-22T12:38:40;5.10;99.90
47520;DHT22;33252;48.122;11.538;2023-12-22T12:41:09;5.10;99.90
47520;DHT22;33252;48.122;11.538;2023-12-22T12:43:41;5.20;99.90
47520;DHT22;33252;48.122;11.538;2023-12-22T12:46:07;5.20;99.90
47520;DHT22;33252;48.122;11.538;2023-12-22T12:48:33;5.20;99.90
47520;DHT22;33252;48.122;11.538;2023-12-22T12:51:05;5.20;99.90
47520;DHT22;33252;48.122;11.538;2023-12-22T12:53:32;5.30;99.90
47520;DHT22;33252;48.122;11.538;2023-12-22T12:56:01;5.40;99.90
47520;DHT22;33252;48.122;11.538;2023-12-22T12:58:30;5.40;99.90
47520;DHT22;33252;48.122;11.538;2023-12-22T13:01:09;5.30;99.90
47520;DHT22;33252;48.122;11.538;2023-12-22T13:03:54;5.30;99.90
47520;DHT22;33252;48.122;11.538;2023-12-22T13:06:20;5.30;99.90
47520;DHT22;33252;48.122;11.538;2023-12-22T13:08:52;5.30;99.90
47520;DHT22;33252;48.122;11.538;2023-12-22T13:11:26;5.30;99.90
47520;DHT22;33252;48.122;11.538;2023-12-22T13:13:52;5.20;99.90
47520;DHT22;33252;48.122;11.538;2023-12-22T13:16:22;5.10;99.90
47520;DHT22;33252;48.122;11.538;2023-12-22T13:18:51;5.10;99.90
47520;DHT22;33252;48.122;11.538;2023-12-22T13:21:16;5.10;99.90
47520;DHT22;33252;48.122;11.538;2023-12-22T13:23:42;5.00;99.90
47520;DHT22;33252;48.122;11.538;2023-12-22T13:26:18;5.00;99.90
47520;DHT22;33252;48.122;11.538;2023-12-22T13:28:44;5.00;99.90
47520;DHT22;33252;48.122;11.538;2023-12-22T13:31:11;5.00;99.90
47520;DHT22;33252;48.122;11.538;2023-12-22T13:33:39;5.00;99.90
47520;DHT22;33252;48.122;11.538;2023-12-22T13:36:05;5.00;99.90
47520;DHT22;33252;48.122;11.538;2023-12-22T13:38:32;5.00;99.90
47520;DHT22;33252;48.122;11.538;2023-12-22T13:40:57;5.00;99.90
47520;DHT22;33252;48.122;11.538;2023-12-22T13:43:28;5.00;99.90
47520;DHT22;33252;48.122;11.538;2023-12-22T13:45:54;5.00;99.90
47520;DHT22;33252;48.122;11.538;2023-12-22T13:48:19;5.00;99.90
47520;DHT22;33252;48.122;11.538;2023-12-22T13:50:58;5.10;99.90
47520;DHT22;33252;48.122;11.538;2023-12-22T13:53:24;5.20;99.90
47520;DHT22;33252;48.122;11.538;2023-12-22T13:55:59;5.20;99.90
47520;DHT22;33252;48.122;11.538;2023-12-22T13:58:26;5.20;99.90
47520;DHT22;33252;48.122;11.538;2023-12-22T14:00:52;5.20;99.90
47520;DHT22;33252;48.122;11.538;2023-12-22T14:03:19;5.20;99.90
47520;DHT22;33252;48.122;11.538;2023-12-22T14:05:47;5.20;99.90
47520;DHT22;33252;48.122;11.538;2023-12-22T14:08:14;5.30;99.90
47520;DHT22;33252;48.122;11.538;2023-12-22T14:10:46;5.30;99.90
47520;DHT22;33252;48.122;11.538;2023-12-22T14:13:15;5.30;99.90
47520;DHT22;33252;48.122;11.538;2023-12-22T14:15:43;5.30;99.90
47520;DHT22;33252;48.122;11.538;2023-12-22T14:18:10;5.40;99.90
47520;DHT22;33252;48.122;11.538;2023-12-22T14:20:36;5.40;99.90
47520;DHT22;33252;48.122;11.538;2023-12-22T14:23:01;5.40;99.90
47520;DHT22;33252;48.122;11.538;2023-12-22T14:25:27;5.40;99.90
47520;DHT22;33252;48.122;11.538;2023-12-22T14:27:53;5.50;99.90
47520;DHT22;33252;48.122;11.538;2023-12-22T14:30:23;5.50;99.90
47520;DHT22;33252;48.122;11.538;2023-12-22T14:32:48;5.50;99.90
47520;DHT22;33252;48.122;11.538;2023-12-22T14:35:14;5.50;99.90
47520;DHT22;33252;48.122;11.538;2023-12-22T14:37:39;5.60;99.90
47520;DHT22;33252;48.122;11.538;2023-12-22T14:40:05;5.60;99.90
47520;DHT22;33252;48.122;11.538;2023-12-22T14:42:32;5.60;99.90
47520;DHT22;33252;48.122;11.538;2023-12-22T14:44:58;5.60;99.90
47520;DHT22;33252;48.122;11.538;2023-12-22T14:47:23;5.60;99.90
47520;DHT22;33252;48.122;11.538;2023-12-22T14:49:49;5.60;99.90
47520;DHT22;33252;48.122;11.538;2023-12-22T14:52:14;5.60;99.90
47520;DHT22;33252;48.122;11.538;2023-12-22T14:54:40;5.80;99.90
47520;DHT22;33252;48.122;11.538;2023-12-22T14:57:06;5.70;99.90
47520;DHT22;33252;48.122;11.538;2023-12-22T14:59:31;5.70;99.90
47520;DHT22;33252;48.122;11.538;2023-12-22T15:01:57;5.70;99.90
47520;DHT22;33252;48.122;11.538;2023-12-22T15:04:22;5.70;99.90
47520;DHT22;33252;48.122;11.538;2023-12-22T15:06:49;5.60;99.90
47520;DHT22;33252;48.122;11.538;2023-12-22T15:09:15;5.70;99.90
47520;DHT22;33252;48.122;11.538;2023-12-22T15:11:44;5.60;99.90
47520;DHT22;33252;48.122;11.538;2023-12-22T15:14:11;5.70;99.90
47520;DHT22;33252;48.122;11.538;2023-12-22T15:16:43;5.70;99.90
47520;DHT22;33252;48.122;11.538;2023-12-22T15:19:13;5.80;99.90
47520;DHT22;33252;48.122;11.538;2023-12-22T15:21:39;5.70;99.90
47520;DHT22;33252;48.122;11.538;2023-12-22T15:24:08;5.70;99.90
47520;DHT22;33252;48.122;11.538;2023-12-22T15:26:33;5.70;99.90
47520;DHT22;33252;48.122;11.538;2023-12-22T15:29:00;5.70;99.90
47520;DHT22;33252;48.122;11.538;2023-12-22T15:31:25;5.70;99.90